Time;durP1;ratioP1;P1;durP2;ratioP2;P2;SDS_P1;SDS_P2;PMS_P1;PMS_P2;Temp;Humidity;BMP_temperature;BMP_pressure;BME280_temperature;BME280_humidity;BME280_pressure;Samples;Min_cycle;Max_cycle;Signal;HPM_P1;HPM_P2
2022/11/16 00:02:12;;;;;;;25.08;12.90;;;;;;;;;;4987648;28;20055;-85
2022/11/16 00:04:39;;;;;;;24.42;12.82;;;;;;;;;;4971466;28;20838;-85
2022/11/16 00:07:06;;;;;;;27.10;12.50;;;;;;;;;;4986300;28;20063;-86
2022/11/16 00:09:33;;;;;;;24.58;12.20;;;;;;;;;;4989628;28;20138;-85
2022/11/16 00:12:01;;;;;;;23.38;12.85;;;;;;;;;;4972173;28;20070;-84
2022/11/16 00:14:29;;;;;;;25.08;13.20;;;;;;;;;;4986651;28;20910;-86
2022/11/16 00:16:55;;;;;;;25.23;13.27;;;;;;;;;;4994156;28;20081;-85
2022/11/16 00:19:22;;;;;;;24.45;13.48;;;;;;;;;;5009819;28;20147;-84
2022/11/16 00:21:49;;;;;;;24.17;13.13;;;;;;;;;;5009331;28;20508;-84
2022/11/16 00:24:17;;;;;;;23.95;12.82;;;;;;;;;;4981215;28;20051;-84
2022/11/16 00:26:44;;;;;;;23.60;12.68;;;;;;;;;;4970391;28;20063;-84
2022/11/16 00:29:15;;;;;;;26.73;13.45;;;;;;;;;;4971443;28;20441;-84
2022/11/16 00:31:43;;;;;;;26.98;13.43;;;;;;;;;;4972238;28;20055;-85
2022/11/16 00:34:10;;;;;;;25.77;12.93;;;;;;;;;;4981284;28;20059;-85
2022/11/16 00:36:37;;;;;;;27.55;13.18;;;;;;;;;;4990010;28;20050;-84
2022/11/16 00:39:03;;;;;;;28.10;13.07;;;;;;;;;;4989029;28;20062;-85
2022/11/16 00:41:30;;;;;;;24.40;13.35;;;;;;;;;;4973392;28;20059;-85
2022/11/16 00:43:56;;;;;;;26.77;13.70;;;;;;;;;;4989633;28;20055;-84
2022/11/16 00:46:23;;;;;;;25.67;12.90;;;;;;;;;;4971654;28;20058;-84
2022/11/16 00:48:49;;;;;;;25.70;13.38;;;;;;;;;;4970983;28;20043;-86
2022/11/16 00:51:16;;;;;;;29.23;14.10;;;;;;;;;;4973258;28;20051;-86
2022/11/16 00:53:42;;;;;;;26.23;13.07;;;;;;;;;;4989179;28;20041;-84
2022/11/16 00:56:09;;;;;;;27.27;13.85;;;;;;;;;;4987958;28;21313;-84
2022/11/16 00:58:35;;;;;;;28.30;14.02;;;;;;;;;;4986721;28;20058;-85
2022/11/16 01:01:06;;;;;;;26.92;13.20;;;;;;;;;;4970687;28;20054;-86
2022/11/16 01:03:33;;;;;;;31.05;14.60;;;;;;;;;;4958009;28;20066;-85
2022/11/16 01:06:01;;;;;;;29.20;14.38;;;;;;;;;;4968890;28;20047;-85
2022/11/16 01:08:27;;;;;;;29.33;14.02;;;;;;;;;;4993997;28;20062;-85
2022/11/16 01:10:54;;;;;;;26.75;14.23;;;;;;;;;;4971067;28;20516;-84
2022/11/16 01:13:20;;;;;;;26.60;13.75;;;;;;;;;;4970057;28;20055;-84
2022/11/16 01:15:47;;;;;;;26.83;13.88;;;;;;;;;;4970410;28;20066;-83
2022/11/16 01:18:13;;;;;;;26.35;14.27;;;;;;;;;;4968160;28;20054;-84
2022/11/16 01:20:40;;;;;;;25.80;13.70;;;;;;;;;;4969142;28;20055;-84
2022/11/16 01:23:06;;;;;;;28.95;14.13;;;;;;;;;;4969929;28;20059;-84
2022/11/16 01:25:32;;;;;;;29.00;14.52;;;;;;;;;;4987242;28;20058;-84
2022/11/16 01:27:59;;;;;;;28.25;13.68;;;;;;;;;;4987051;28;20047;-84
2022/11/16 01:30:25;;;;;;;31.50;14.10;;;;;;;;;;4986897;28;20065;-85
2022/11/16 01:32:51;;;;;;;30.05;14.13;;;;;;;;;;4987889;28;20063;-83
2022/11/16 01:35:18;;;;;;;28.05;14.23;;;;;;;;;;4988150;28;20067;-84
2022/11/16 01:37:44;;;;;;;25.48;13.40;;;;;;;;;;4968514;28;20509;-83
2022/11/16 01:40:11;;;;;;;26.40;13.05;;;;;;;;;;4986929;28;20137;-83
2022/11/16 01:42:37;;;;;;;25.20;13.07;;;;;;;;;;4969497;28;20514;-83
2022/11/16 01:45:06;;;;;;;28.95;14.27;;;;;;;;;;4969388;28;20867;-82
2022/11/16 01:47:32;;;;;;;27.38;13.07;;;;;;;;;;4986872;28;20054;-83
2022/11/16 01:50:02;;;;;;;27.92;13.18;;;;;;;;;;4969532;28;20512;-83
2022/11/16 01:52:31;;;;;;;27.40;13.95;;;;;;;;;;4969207;28;20065;-83
2022/11/16 01:54:58;;;;;;;27.02;14.40;;;;;;;;;;4969198;28;20094;-84
2022/11/16 01:57:32;;;;;;;28.33;14.55;;;;;;;;;;4969095;28;20051;-83
2022/11/16 01:59:59;;;;;;;26.30;14.38;;;;;;;;;;4987259;28;20055;-83
2022/11/16 02:02:26;;;;;;;29.23;13.30;;;;;;;;;;4969907;28;20058;-83
2022/11/16 02:04:53;;;;;;;24.38;12.95;;;;;;;;;;4969191;28;20708;-83
2022/11/16 02:10:27;;;;;;;26.75;13.13;;;;;;;;;;4984085;28;20245;-83
2022/11/16 02:13:01;;;;;;;24.85;13.52;;;;;;;;;;4968718;28;20518;-84
2022/11/16 02:15:40;;;;;;;24.33;11.98;;;;;;;;;;4982561;28;20058;-83
2022/11/16 02:18:12;;;;;;;22.65;12.55;;;;;;;;;;4984567;28;20062;-83
2022/11/16 02:20:57;;;;;;;26.05;12.93;;;;;;;;;;4986592;28;20054;-83
2022/11/16 02:23:27;;;;;;;23.88;12.02;;;;;;;;;;4966341;28;20066;-83
2022/11/16 02:26:12;;;;;;;24.35;12.25;;;;;;;;;;4979194;28;20062;-83
2022/11/16 02:28:38;;;;;;;25.08;11.73;;;;;;;;;;4990065;28;20475;-84
2022/11/16 02:31:06;;;;;;;22.70;12.23;;;;;;;;;;4965584;28;20047;-84
2022/11/16 02:33:34;;;;;;;24.55;12.18;;;;;;;;;;5002682;28;20062;-83
2022/11/16 02:36:04;;;;;;;23.85;11.50;;;;;;;;;;4990015;28;20066;-83
2022/11/16 02:38:31;;;;;;;23.52;11.88;;;;;;;;;;4983457;28;20061;-83
2022/11/16 02:41:04;;;;;;;27.27;12.98;;;;;;;;;;4969104;28;20062;-83
2022/11/16 02:43:34;;;;;;;24.38;11.57;;;;;;;;;;4967864;28;20058;-83
2022/11/16 02:46:03;;;;;;;23.55;12.43;;;;;;;;;;4986431;28;20067;-82
2022/11/16 02:48:33;;;;;;;22.27;11.65;;;;;;;;;;4965270;28;20059;-83
2022/11/16 02:51:00;;;;;;;24.77;12.10;;;;;;;;;;4968902;28;20069;-83
2022/11/16 02:53:26;;;;;;;25.23;12.38;;;;;;;;;;4966337;28;20043;-83
2022/11/16 02:55:53;;;;;;;24.02;11.98;;;;;;;;;;4971247;28;20065;-82
2022/11/16 02:58:28;;;;;;;24.27;11.65;;;;;;;;;;4965109;28;20061;-84
2022/11/16 03:00:59;;;;;;;28.60;12.38;;;;;;;;;;4971219;28;20062;-84
2022/11/16 03:03:31;;;;;;;27.02;12.40;;;;;;;;;;4987935;28;20066;-84
2022/11/16 03:06:04;;;;;;;24.90;12.27;;;;;;;;;;4968217;28;20058;-84
2022/11/16 03:08:33;;;;;;;24.45;11.98;;;;;;;;;;4985979;28;20050;-84
2022/11/16 03:13:48;;;;;;;24.33;12.02;;;;;;;;;;4987109;28;20058;-85
2022/11/16 03:16:23;;;;;;;23.95;12.20;;;;;;;;;;4970459;28;20051;-84
2022/11/16 03:18:51;;;;;;;24.05;12.70;;;;;;;;;;4970249;28;20062;-84
2022/11/16 03:21:24;;;;;;;22.30;12.43;;;;;;;;;;4969610;28;20055;-84
2022/11/16 03:23:50;;;;;;;22.35;11.70;;;;;;;;;;5001261;28;20062;-83
2022/11/16 03:26:19;;;;;;;25.77;12.13;;;;;;;;;;4990569;28;20058;-83
2022/11/16 03:28:49;;;;;;;23.25;12.50;;;;;;;;;;4986813;28;20059;-84
2022/11/16 03:31:20;;;;;;;26.95;12.43;;;;;;;;;;4986130;28;20054;-85
2022/11/16 03:33:49;;;;;;;24.05;12.38;;;;;;;;;;4987058;28;20059;-84
2022/11/16 03:36:29;;;;;;;24.75;12.40;;;;;;;;;;4983427;28;20130;-84
2022/11/16 03:38:56;;;;;;;;;;;;;;;;;;4988355;28;20055;-83
2022/11/16 03:41:23;;;;;;;22.67;11.48;;;;;;;;;;4970357;28;44933;-84
2022/11/16 03:43:50;;;;;;;23.58;11.38;;;;;;;;;;4986779;28;20062;-84
2022/11/16 03:46:16;;;;;;;23.58;11.65;;;;;;;;;;4971353;28;20061;-84
2022/11/16 03:48:43;;;;;;;21.73;10.68;;;;;;;;;;4969343;28;20051;-85
2022/11/16 03:51:09;;;;;;;23.65;10.35;;;;;;;;;;4985395;28;20512;-83
2022/11/16 03:53:36;;;;;;;20.60;10.38;;;;;;;;;;4968307;28;20101;-84
2022/11/16 03:56:03;;;;;;;18.33;9.52;;;;;;;;;;4970578;28;20470;-85
2022/11/16 03:58:29;;;;;;;16.63;9.18;;;;;;;;;;5002408;28;20077;-84
2022/11/16 04:00:56;;;;;;;19.98;9.85;;;;;;;;;;4986609;28;20157;-84
2022/11/16 04:03:22;;;;;;;15.95;9.13;;;;;;;;;;4974784;28;20765;-84
2022/11/16 04:25:16;;;;;;;13.60;6.38;;;;;;;;;;4990676;28;20144;-84
2022/11/16 04:37:47;;;;;;;12.95;6.10;;;;;;;;;;5009283;28;20087;-83
2022/11/16 04:38:46;;;;;;;10.52;5.13;;;;;;;;;;4988996;28;20062;-83
2022/11/16 04:42:13;;;;;;;14.93;5.90;;;;;;;;;;4988922;28;20054;-84
2022/11/16 04:43:59;;;;;;;13.82;5.50;;;;;;;;;;4988562;28;20062;-84
2022/11/16 04:49:10;;;;;;;10.20;5.60;;;;;;;;;;4987854;28;20058;-84
2022/11/16 04:51:36;;;;;;;12.88;6.13;;;;;;;;;;4969426;28;20059;-83
2022/11/16 04:54:03;;;;;;;12.07;5.80;;;;;;;;;;4971409;28;20058;-83
2022/11/16 04:56:29;;;;;;;12.00;5.75;;;;;;;;;;4972254;28;20058;-83
2022/11/16 04:58:55;;;;;;;12.27;6.63;;;;;;;;;;4971771;28;20051;-83
2022/11/16 05:02:06;;;;;;;13.35;5.63;;;;;;;;;;4966732;28;20494;-83
2022/11/16 05:04:08;;;;;;;12.85;5.50;;;;;;;;;;4985489;28;20110;-83
2022/11/16 05:06:34;;;;;;;11.40;5.55;;;;;;;;;;4971840;28;20058;-84
2022/11/16 05:09:01;;;;;;;15.23;5.85;;;;;;;;;;4988857;28;20118;-84
2022/11/16 05:11:27;;;;;;;15.43;5.85;;;;;;;;;;4971518;28;20065;-84
2022/11/16 05:13:53;;;;;;;10.90;6.03;;;;;;;;;;4967594;28;20161;-84
2022/11/16 05:16:20;;;;;;;16.27;6.25;;;;;;;;;;4966803;28;20129;-84
2022/11/16 05:20:59;;;;;;;12.27;5.55;;;;;;;;;;4965164;28;20057;-83
2022/11/16 05:21:35;;;;;;;13.90;5.90;;;;;;;;;;4987749;28;20811;-84
2022/11/16 05:26:49;;;;;;;14.77;5.78;;;;;;;;;;4981490;28;20058;-83
2022/11/16 05:29:18;;;;;;;13.18;6.07;;;;;;;;;;4966709;28;20055;-84
2022/11/16 05:31:44;;;;;;;12.55;5.75;;;;;;;;;;4967317;28;20093;-83
2022/11/16 05:34:11;;;;;;;15.25;7.20;;;;;;;;;;4965813;28;20058;-84
2022/11/16 05:36:37;;;;;;;14.15;6.75;;;;;;;;;;4985176;28;20058;-83
2022/11/16 05:39:04;;;;;;;11.75;6.22;;;;;;;;;;4973885;28;20058;-83
2022/11/16 05:41:30;;;;;;;13.45;6.82;;;;;;;;;;4990641;28;20077;-83
2022/11/16 05:43:57;;;;;;;16.45;7.35;;;;;;;;;;4967223;28;20055;-83
2022/11/16 05:46:23;;;;;;;15.85;7.43;;;;;;;;;;4984764;28;20059;-83
2022/11/16 05:48:50;;;;;;;14.52;6.82;;;;;;;;;;4968934;28;20062;-83
2022/11/16 05:51:16;;;;;;;17.55;7.80;;;;;;;;;;4967669;28;20071;-84
2022/11/16 05:53:43;;;;;;;16.38;8.05;;;;;;;;;;4963314;28;20062;-83
2022/11/16 05:56:10;;;;;;;26.50;9.50;;;;;;;;;;4979299;28;21092;-83
2022/11/16 05:58:36;;;;;;;27.52;10.60;;;;;;;;;;4990369;28;20127;-84
2022/11/16 06:01:04;;;;;;;26.60;11.75;;;;;;;;;;4985665;28;20082;-81
2022/11/16 06:03:31;;;;;;;27.80;11.65;;;;;;;;;;4967503;28;20063;-81
2022/11/16 06:05:57;;;;;;;27.70;12.18;;;;;;;;;;4967116;28;20054;-82
2022/11/16 06:08:23;;;;;;;25.52;11.63;;;;;;;;;;4986024;28;20047;-84
2022/11/16 06:10:50;;;;;;;24.55;12.40;;;;;;;;;;4965807;28;20054;-81
2022/11/16 06:13:16;;;;;;;25.58;11.57;;;;;;;;;;4992021;28;20191;-81
2022/11/16 06:15:42;;;;;;;27.05;12.65;;;;;;;;;;4992958;28;20054;-81
2022/11/16 06:18:17;;;;;;;29.02;12.73;;;;;;;;;;4983713;28;20058;-81
2022/11/16 06:20:43;;;;;;;27.05;12.13;;;;;;;;;;4967562;28;20531;-81
2022/11/16 06:23:09;;;;;;;26.13;12.15;;;;;;;;;;4963855;28;20051;-81
2022/11/16 06:25:37;;;;;;;25.90;12.32;;;;;;;;;;4981973;28;20057;-81
2022/11/16 06:28:03;;;;;;;30.05;12.95;;;;;;;;;;4964950;28;20059;-81
2022/11/16 06:30:33;;;;;;;27.37;12.17;;;;;;;;;;4972118;28;20800;-81
2022/11/16 06:33:00;;;;;;;30.20;12.35;;;;;;;;;;4990065;28;20050;-82
2022/11/16 06:35:26;;;;;;;29.35;12.13;;;;;;;;;;4988083;28;20070;-82
2022/11/16 06:37:52;;;;;;;27.80;11.75;;;;;;;;;;4969294;28;21390;-82
2022/11/16 06:40:18;;;;;;;25.95;12.02;;;;;;;;;;4988017;28;20055;-82
2022/11/16 06:42:46;;;;;;;23.45;11.80;;;;;;;;;;4970487;28;20055;-82
2022/11/16 06:45:12;;;;;;;24.52;11.48;;;;;;;;;;4969213;28;20058;-82
2022/11/16 06:47:39;;;;;;;24.55;10.50;;;;;;;;;;4982121;28;20063;-82
2022/11/16 06:50:05;;;;;;;24.30;10.40;;;;;;;;;;4968816;28;20065;-82
2022/11/16 06:52:31;;;;;;;23.80;10.43;;;;;;;;;;4986339;28;20055;-82
2022/11/16 06:54:58;;;;;;;19.15;9.73;;;;;;;;;;4987566;28;20058;-82
2022/11/16 06:57:24;;;;;;;24.00;9.60;;;;;;;;;;4966334;28;20062;-82
2022/11/16 06:59:50;;;;;;;17.15;9.15;;;;;;;;;;4965765;28;20043;-82
2022/11/16 07:02:20;;;;;;;19.95;9.30;;;;;;;;;;4971484;28;20059;-81
2022/11/16 07:04:46;;;;;;;21.17;8.85;;;;;;;;;;4969595;28;20419;-81
2022/11/16 07:07:14;;;;;;;19.67;9.40;;;;;;;;;;4986224;28;20055;-81
2022/11/16 07:09:41;;;;;;;21.63;8.45;;;;;;;;;;4968191;28;20051;-81
2022/11/16 07:12:08;;;;;;;22.00;8.20;;;;;;;;;;4964964;28;20059;-82
2022/11/16 07:14:34;;;;;;;19.95;7.63;;;;;;;;;;4966019;28;20062;-82
2022/11/16 07:17:00;;;;;;;14.98;7.82;;;;;;;;;;4967518;28;20498;-82
2022/11/16 07:19:35;;;;;;;23.75;8.68;;;;;;;;;;4970350;28;20133;-81
2022/11/16 07:22:02;;;;;;;18.50;9.75;;;;;;;;;;4969320;28;20059;-81
2022/11/16 07:24:28;;;;;;;20.90;8.52;;;;;;;;;;4968542;28;20129;-81
2022/11/16 07:26:54;;;;;;;21.23;8.77;;;;;;;;;;4971255;28;20047;-82
2022/11/16 07:29:21;;;;;;;24.65;9.35;;;;;;;;;;4968604;28;20055;-82
2022/11/16 07:31:47;;;;;;;18.92;8.93;;;;;;;;;;4967972;28;20054;-81
2022/11/16 07:34:13;;;;;;;22.77;7.93;;;;;;;;;;4968715;28;20058;-82
2022/11/16 07:36:40;;;;;;;16.83;7.95;;;;;;;;;;4967200;28;20456;-82
2022/11/16 07:39:08;;;;;;;16.92;7.55;;;;;;;;;;4970561;28;20054;-82
2022/11/16 07:41:34;;;;;;;16.42;6.65;;;;;;;;;;4972052;28;20065;-82
2022/11/16 07:44:01;;;;;;;13.82;6.25;;;;;;;;;;4986744;28;20055;-82
2022/11/16 07:46:27;;;;;;;15.02;6.28;;;;;;;;;;4985922;28;20062;-82
2022/11/16 07:49:13;;;;;;;12.63;4.53;;;;;;;;;;4973169;28;20152;-82
2022/11/16 07:51:40;;;;;;;9.65;4.10;;;;;;;;;;4969985;28;20051;-82
2022/11/16 07:54:07;;;;;;;12.48;4.18;;;;;;;;;;4976033;28;20437;-82
2022/11/16 07:56:33;;;;;;;11.40;4.50;;;;;;;;;;4987890;28;20058;-82
2022/11/16 07:59:00;;;;;;;18.65;4.45;;;;;;;;;;4984228;28;20054;-82
2022/11/16 08:01:26;;;;;;;10.23;4.30;;;;;;;;;;5007542;28;20098;-82
2022/11/16 08:03:53;;;;;;;12.10;3.70;;;;;;;;;;4984341;28;20059;-82
2022/11/16 08:06:23;;;;;;;11.50;4.18;;;;;;;;;;4970469;28;20061;-82
2022/11/16 08:08:50;;;;;;;14.52;3.85;;;;;;;;;;4969927;28;20063;-82
2022/11/16 08:11:23;;;;;;;14.15;3.83;;;;;;;;;;4962236;28;20070;-82
2022/11/16 08:13:50;;;;;;;9.25;4.35;;;;;;;;;;4973484;28;20058;-82
2022/11/16 08:16:18;;;;;;;12.05;4.22;;;;;;;;;;4973512;28;20080;-82
2022/11/16 08:18:44;;;;;;;13.32;4.88;;;;;;;;;;4966368;28;20065;-83
2022/11/16 08:21:11;;;;;;;12.40;4.68;;;;;;;;;;4977550;28;20114;-82
2022/11/16 08:23:41;;;;;;;15.85;4.93;;;;;;;;;;4978357;28;20106;-82
2022/11/16 08:26:08;;;;;;;14.80;5.50;;;;;;;;;;4992431;28;20098;-82
2022/11/16 08:28:35;;;;;;;14.38;5.68;;;;;;;;;;4975022;28;20775;-82
2022/11/16 08:31:16;;;;;;;15.02;5.10;;;;;;;;;;4973347;28;20930;-82
2022/11/16 08:33:42;;;;;;;11.18;4.15;;;;;;;;;;4988153;28;20057;-82
2022/11/16 08:36:11;;;;;;;13.13;4.43;;;;;;;;;;4989350;28;20569;-82
2022/11/16 08:38:39;;;;;;;15.15;5.03;;;;;;;;;;4966642;28;20141;-82
2022/11/16 08:41:06;;;;;;;18.65;5.30;;;;;;;;;;4972379;28;20055;-82
2022/11/16 08:43:33;;;;;;;14.15;4.93;;;;;;;;;;4974419;28;20860;-82
2022/11/16 08:45:59;;;;;;;15.77;4.50;;;;;;;;;;4974859;28;20141;-82
2022/11/16 08:48:25;;;;;;;12.68;4.78;;;;;;;;;;4955318;28;20057;-82
2022/11/16 08:50:52;;;;;;;10.07;4.18;;;;;;;;;;4982943;28;20058;-83
2022/11/16 08:53:38;;;;;;;16.20;4.60;;;;;;;;;;4991054;28;20102;-82
2022/11/16 08:56:07;;;;;;;9.93;4.18;;;;;;;;;;4964259;28;20137;-82
2022/11/16 08:58:34;;;;;;;14.85;4.55;;;;;;;;;;4983336;28;20428;-82
2022/11/16 09:01:12;;;;;;;13.10;3.95;;;;;;;;;;4988084;28;20053;-83
2022/11/16 09:03:39;;;;;;;12.77;4.72;;;;;;;;;;4990346;28;20051;-83
2022/11/16 09:06:07;;;;;;;18.00;4.00;;;;;;;;;;4988015;28;20050;-83
2022/11/16 09:08:34;;;;;;;12.63;4.68;;;;;;;;;;4963524;28;20858;-83
2022/11/16 09:11:11;;;;;;;18.48;4.65;;;;;;;;;;4961211;28;20066;-82
2022/11/16 09:13:37;;;;;;;11.75;4.20;;;;;;;;;;4962703;28;20051;-83
2022/11/16 09:16:04;;;;;;;9.05;3.60;;;;;;;;;;4988369;28;20061;-83
2022/11/16 09:18:30;;;;;;;19.20;5.05;;;;;;;;;;4990438;28;20050;-82
2022/11/16 09:20:57;;;;;;;11.13;4.90;;;;;;;;;;4970648;28;21310;-82
2022/11/16 09:23:23;;;;;;;12.63;3.70;;;;;;;;;;4972128;28;20055;-82
2022/11/16 09:25:51;;;;;;;14.65;4.28;;;;;;;;;;4972184;28;20059;-82
2022/11/16 09:28:17;;;;;;;12.65;3.78;;;;;;;;;;4972528;28;20502;-82
2022/11/16 09:30:45;;;;;;;13.00;4.00;;;;;;;;;;4978023;28;20055;-81
2022/11/16 09:33:12;;;;;;;10.52;3.33;;;;;;;;;;4999372;28;20046;-82
2022/11/16 09:35:38;;;;;;;11.88;3.15;;;;;;;;;;5000505;28;20061;-82
2022/11/16 09:38:05;;;;;;;19.27;4.05;;;;;;;;;;4977450;28;20902;-82
2022/11/16 09:40:36;;;;;;;17.40;5.82;;;;;;;;;;4986709;28;20062;-82
2022/11/16 09:43:14;;;;;;;17.80;4.15;;;;;;;;;;4969565;28;20509;-82
2022/11/16 09:45:41;;;;;;;13.75;3.75;;;;;;;;;;4969014;28;20057;-82
2022/11/16 09:48:11;;;;;;;10.50;2.80;;;;;;;;;;4969487;28;20058;-82
2022/11/16 09:50:37;;;;;;;11.35;3.10;;;;;;;;;;4985174;28;20216;-81
2022/11/16 09:53:16;;;;;;;12.98;3.35;;;;;;;;;;4967638;28;20062;-81
2022/11/16 09:55:50;;;;;;;9.15;2.97;;;;;;;;;;4985675;28;20062;-82
2022/11/16 09:58:20;;;;;;;15.13;3.58;;;;;;;;;;4982529;28;20073;-82
2022/11/16 10:00:49;;;;;;;13.27;3.67;;;;;;;;;;4972989;28;20054;-82
2022/11/16 10:03:16;;;;;;;10.90;2.50;;;;;;;;;;4972468;28;20163;-83
2022/11/16 10:05:46;;;;;;;12.80;2.90;;;;;;;;;;4988226;28;20487;-82
2022/11/16 10:08:26;;;;;;;12.73;2.45;;;;;;;;;;4987522;28;20046;-82
2022/11/16 10:10:57;;;;;;;7.65;2.35;;;;;;;;;;4984140;28;20059;-81
2022/11/16 10:13:23;;;;;;;9.65;2.97;;;;;;;;;;4972672;28;20821;-82
2022/11/16 10:15:56;;;;;;;10.13;2.20;;;;;;;;;;4972889;28;20102;-82
2022/11/16 10:18:22;;;;;;;11.70;2.85;;;;;;;;;;4973081;28;20065;-82
2022/11/16 10:20:54;;;;;;;11.52;2.42;;;;;;;;;;4990274;28;20058;-82
2022/11/16 10:23:20;;;;;;;9.48;2.38;;;;;;;;;;4968392;28;20058;-82
2022/11/16 10:25:52;;;;;;;7.60;2.17;;;;;;;;;;4971615;28;20097;-82
2022/11/16 10:28:24;;;;;;;6.13;2.28;;;;;;;;;;4990021;28;20066;-82
2022/11/16 10:30:58;;;;;;;10.10;2.15;;;;;;;;;;4973447;28;20054;-83
2022/11/16 10:33:25;;;;;;;7.32;1.90;;;;;;;;;;4990232;28;20054;-82
2022/11/16 10:35:55;;;;;;;8.48;2.13;;;;;;;;;;4989947;28;20085;-82
2022/11/16 10:38:24;;;;;;;10.43;2.15;;;;;;;;;;4988025;28;20066;-83
2022/11/16 10:40:52;;;;;;;8.20;2.28;;;;;;;;;;4972374;28;20054;-82
2022/11/16 10:43:22;;;;;;;9.05;2.20;;;;;;;;;;4973510;28;20065;-82
2022/11/16 10:45:52;;;;;;;7.28;2.08;;;;;;;;;;4990637;28;20055;-82
2022/11/16 10:48:25;;;;;;;11.95;2.50;;;;;;;;;;4990420;28;20074;-82
2022/11/16 10:50:52;;;;;;;10.80;2.30;;;;;;;;;;4973134;28;20062;-82
2022/11/16 10:53:31;;;;;;;11.63;2.15;;;;;;;;;;4973611;28;20055;-82
2022/11/16 10:56:00;;;;;;;10.63;2.40;;;;;;;;;;4969964;28;20082;-83
2022/11/16 10:58:47;;;;;;;9.55;2.20;;;;;;;;;;4974251;28;20589;-81
2022/11/16 11:01:25;;;;;;;8.05;2.25;;;;;;;;;;4973151;28;20054;-81
2022/11/16 11:03:52;;;;;;;12.00;2.10;;;;;;;;;;4952216;28;20058;-82
2022/11/16 11:06:18;;;;;;;13.65;2.38;;;;;;;;;;4953204;28;20059;-83
2022/11/16 11:08:44;;;;;;;6.80;1.80;;;;;;;;;;4975118;28;20054;-81
2022/11/16 11:14:07;;;;;;;11.68;2.90;;;;;;;;;;4989465;28;20062;-82
2022/11/16 11:16:34;;;;;;;14.77;2.88;;;;;;;;;;4971358;28;20051;-82
2022/11/16 11:19:16;;;;;;;11.50;2.33;;;;;;;;;;4976807;28;20264;-82
2022/11/16 11:21:42;;;;;;;14.55;2.45;;;;;;;;;;5009276;28;20042;-82
2022/11/16 11:24:13;;;;;;;10.35;2.08;;;;;;;;;;4971583;28;20058;-81
2022/11/16 11:27:00;;;;;;;9.05;1.77;;;;;;;;;;4989046;28;20106;-81
2022/11/16 11:29:30;;;;;;;8.13;1.65;;;;;;;;;;4984797;28;20051;-81
2022/11/16 11:31:59;;;;;;;10.95;2.03;;;;;;;;;;4985088;28;20061;-83
2022/11/16 11:34:29;;;;;;;8.18;1.98;;;;;;;;;;4988843;28;20063;-82
2022/11/16 11:37:02;;;;;;;12.15;2.40;;;;;;;;;;4989672;28;20070;-82
2022/11/16 11:39:30;;;;;;;8.50;1.80;;;;;;;;;;4971747;28;20058;-81
2022/11/16 11:42:06;;;;;;;6.95;1.58;;;;;;;;;;4971440;28;20050;-82
2022/11/16 11:44:42;;;;;;;6.50;1.58;;;;;;;;;;4971142;28;20078;-82
2022/11/16 11:47:17;;;;;;;7.00;1.70;;;;;;;;;;4985161;28;20155;-82
2022/11/16 11:50:20;;;;;;;10.27;1.88;;;;;;;;;;4974412;28;20055;-82
2022/11/16 11:53:06;;;;;;;6.80;1.85;;;;;;;;;;4974418;28;20101;-83
2022/11/16 11:55:33;;;;;;;11.05;1.88;;;;;;;;;;4941251;28;20054;-82
2022/11/16 11:58:00;;;;;;;8.75;1.70;;;;;;;;;;5000602;28;20059;-82
2022/11/16 12:00:34;;;;;;;9.90;1.75;;;;;;;;;;4970579;28;20063;-83
2022/11/16 12:03:10;;;;;;;9.63;1.88;;;;;;;;;;4988413;28;20051;-82
2022/11/16 12:05:55;;;;;;;11.23;1.90;;;;;;;;;;4971545;28;20094;-82
2022/11/16 12:08:21;;;;;;;10.38;2.38;;;;;;;;;;4971218;28;20816;-82
2022/11/16 12:10:52;;;;;;;12.98;2.15;;;;;;;;;;4971152;28;20058;-83
2022/11/16 12:13:18;;;;;;;15.88;2.95;;;;;;;;;;4968584;28;20067;-82
2022/11/16 12:16:03;;;;;;;10.18;2.13;;;;;;;;;;4970515;28;20860;-82
2022/11/16 12:18:48;;;;;;;11.85;2.25;;;;;;;;;;4987996;28;20134;-83
2022/11/16 12:21:25;;;;;;;12.80;2.13;;;;;;;;;;4968319;28;20062;-82
2022/11/16 12:24:08;;;;;;;7.10;2.13;;;;;;;;;;4967541;28;20059;-82
2022/11/16 12:26:42;;;;;;;8.73;1.70;;;;;;;;;;4955902;28;20062;-82
2022/11/16 12:29:08;;;;;;;10.20;1.77;;;;;;;;;;4973847;28;20130;-83
2022/11/16 12:31:43;;;;;;;8.43;1.90;;;;;;;;;;4987622;28;20185;-82
2022/11/16 12:34:18;;;;;;;6.68;1.70;;;;;;;;;;4970920;28;20055;-82
2022/11/16 12:36:45;;;;;;;7.35;1.50;;;;;;;;;;4984627;28;20058;-82
2022/11/16 12:39:22;;;;;;;6.22;2.08;;;;;;;;;;4970878;28;20055;-82
2022/11/16 12:42:11;;;;;;;9.52;2.33;;;;;;;;;;4971414;28;20082;-82
2022/11/16 12:44:46;;;;;;;4.97;1.20;;;;;;;;;;4980925;28;20159;-81
2022/11/16 12:47:18;;;;;;;7.90;1.85;;;;;;;;;;5007129;28;20066;-83
2022/11/16 12:49:59;;;;;;;9.30;1.77;;;;;;;;;;5001078;28;20073;-82
2022/11/16 12:52:25;;;;;;;6.68;1.50;;;;;;;;;;4987540;28;20047;-83
2022/11/16 12:54:52;;;;;;;10.07;2.38;;;;;;;;;;4987765;28;20042;-82
2022/11/16 12:57:41;;;;;;;10.15;1.98;;;;;;;;;;4972728;28;20564;-82
2022/11/16 13:00:11;;;;;;;9.93;1.60;;;;;;;;;;4970942;28;20042;-81
2022/11/16 13:02:43;;;;;;;9.02;1.40;;;;;;;;;;4989043;28;20557;-82
2022/11/16 13:05:19;;;;;;;8.63;1.30;;;;;;;;;;4970498;28;20058;-82
2022/11/16 13:07:46;;;;;;;8.73;1.60;;;;;;;;;;4987294;28;20953;-81
2022/11/16 13:10:26;;;;;;;8.88;1.65;;;;;;;;;;4987405;28;20145;-82
2022/11/16 13:12:55;;;;;;;9.05;1.67;;;;;;;;;;4966459;28;20419;-81
2022/11/16 13:15:45;;;;;;;11.15;1.50;;;;;;;;;;4975081;28;20059;-82
2022/11/16 13:18:13;;;;;;;11.68;1.70;;;;;;;;;;4976167;28;20062;-83
2022/11/16 13:20:58;;;;;;;3.75;1.00;;;;;;;;;;4985102;28;20078;-81
2022/11/16 13:23:44;;;;;;;8.30;1.35;;;;;;;;;;4951309;28;20061;-83
2022/11/16 13:26:10;;;;;;;6.90;1.88;;;;;;;;;;4948365;28;20054;-83
2022/11/16 13:28:57;;;;;;;11.00;1.40;;;;;;;;;;4974468;28;20098;-84
2022/11/16 13:31:30;;;;;;;4.82;1.10;;;;;;;;;;4938106;28;20056;-81
2022/11/16 13:34:00;;;;;;;7.45;1.05;;;;;;;;;;4967008;28;20058;-84
2022/11/16 13:36:45;;;;;;;6.22;1.45;;;;;;;;;;4966080;28;20054;-84
2022/11/16 13:39:15;;;;;;;5.45;1.27;;;;;;;;;;4966952;28;20568;-84
2022/11/16 13:41:49;;;;;;;8.10;1.30;;;;;;;;;;4966629;28;20061;-84
2022/11/16 13:44:16;;;;;;;4.57;1.17;;;;;;;;;;4983732;28;20576;-83
2022/11/16 13:46:47;;;;;;;6.25;1.60;;;;;;;;;;4963300;28;20138;-84
2022/11/16 13:49:24;;;;;;;5.45;1.10;;;;;;;;;;4976557;28;20063;-84
2022/11/16 13:51:55;;;;;;;6.90;1.63;;;;;;;;;;4973481;28;20062;-84
2022/11/16 13:54:28;;;;;;;4.72;1.63;;;;;;;;;;4979438;28;20058;-84
2022/11/16 13:57:18;;;;;;;11.13;1.83;;;;;;;;;;4966269;28;20059;-84
2022/11/16 13:59:45;;;;;;;8.38;1.30;;;;;;;;;;4966801;28;20062;-84
2022/11/16 14:02:31;;;;;;;9.15;1.33;;;;;;;;;;4956142;28;20054;-84
2022/11/16 14:05:13;;;;;;;9.13;1.80;;;;;;;;;;4980195;28;20047;-84
2022/11/16 14:07:45;;;;;;;7.70;1.40;;;;;;;;;;4981607;28;20050;-84
2022/11/16 14:10:31;;;;;;;6.50;1.38;;;;;;;;;;4961201;28;20251;-84
2022/11/16 14:12:58;;;;;;;6.75;1.60;;;;;;;;;;4958588;28;20058;-84
2022/11/16 14:15:32;;;;;;;8.57;1.38;;;;;;;;;;4983958;28;20074;-84
2022/11/16 14:18:00;;;;;;;8.07;2.28;;;;;;;;;;4985259;28;20058;-83
2022/11/16 14:20:33;;;;;;;7.95;2.72;;;;;;;;;;4984003;28;20062;-83
2022/11/16 14:22:59;;;;;;;10.65;4.55;;;;;;;;;;4978281;28;20054;-83
2022/11/16 14:25:32;;;;;;;7.60;2.15;;;;;;;;;;4969617;28;20062;-83
2022/11/16 14:28:17;;;;;;;8.68;1.63;;;;;;;;;;4965303;28;20150;-83
2022/11/16 14:30:49;;;;;;;7.97;2.55;;;;;;;;;;4975525;28;20058;-81
2022/11/16 14:33:24;;;;;;;6.88;2.60;;;;;;;;;;4968468;28;20059;-83
2022/11/16 14:35:51;;;;;;;13.65;3.67;;;;;;;;;;4985515;28;20066;-83
2022/11/16 14:38:18;;;;;;;11.90;2.75;;;;;;;;;;4968467;28;20505;-83
2022/11/16 14:40:45;;;;;;;8.18;1.83;;;;;;;;;;4967328;28;20058;-82
2022/11/16 14:43:33;;;;;;;14.35;4.65;;;;;;;;;;4969851;28;20541;-83
2022/11/16 14:46:04;;;;;;;13.80;5.72;;;;;;;;;;4957764;28;20146;-83
2022/11/16 14:48:31;;;;;;;;;;;;;;;;;;4971162;28;20066;-83
2022/11/16 14:51:03;;;;;;;13.13;3.15;;;;;;;;;;4970731;28;45589;-83
2022/11/16 14:53:30;;;;;;;9.13;3.30;;;;;;;;;;4966704;28;20098;-83
2022/11/16 14:56:07;;;;;;;11.45;4.40;;;;;;;;;;4968729;28;20059;-83
2022/11/16 14:58:34;;;;;;;10.10;3.60;;;;;;;;;;4973182;28;20520;-83
2022/11/16 15:01:02;;;;;;;12.90;4.28;;;;;;;;;;4972614;28;20059;-83
2022/11/16 15:03:39;;;;;;;7.78;2.50;;;;;;;;;;4968187;28;20055;-83
2022/11/16 15:06:06;;;;;;;16.05;6.38;;;;;;;;;;4968410;28;20059;-84
2022/11/16 15:08:37;;;;;;;12.43;4.13;;;;;;;;;;4986405;28;20062;-83
2022/11/16 15:11:06;;;;;;;15.45;6.95;;;;;;;;;;4991048;28;20425;-84
2022/11/16 15:13:32;;;;;;;19.98;8.40;;;;;;;;;;4976946;28;20140;-84
2022/11/16 15:16:13;;;;;;;11.57;3.40;;;;;;;;;;4961426;28;20553;-84
2022/11/16 15:18:39;;;;;;;10.50;2.80;;;;;;;;;;4982178;28;20059;-83
2022/11/16 15:21:19;;;;;;;10.50;3.78;;;;;;;;;;4985698;28;20286;-84
2022/11/16 15:23:46;;;;;;;12.23;4.10;;;;;;;;;;4983504;28;20062;-84
2022/11/16 15:26:32;;;;;;;7.85;2.60;;;;;;;;;;4985176;28;20470;-83
2022/11/16 15:28:58;;;;;;;6.43;2.10;;;;;;;;;;4968694;28;20160;-83